Time;durP1;ratioP1;P1;durP2;ratioP2;P2;SDS_P1;SDS_P2;PMS_P1;PMS_P2;Temp;Humidity;BMP_temperature;BMP_pressure;BME280_temperature;BME280_humidity;BME280_pressure;Samples;Min_cycle;Max_cycle;Signal;HPM_P1;HPM_P2
2023/01/20 00:09:27;;;;;;;130.00;37.20;;;;;;;3.98;100.00;99734.59;682809;1263;139310;-78
2023/01/20 00:24:31;;;;;;;159.40;48.10;;;;;;;4.07;100.00;99745.59;682735;1259;139380;-78
2023/01/20 00:39:34;;;;;;;132.30;37.90;;;;;;;3.95;100.00;99752.31;682761;1258;139622;-76
2023/01/20 00:54:37;;;;;;;120.60;33.50;;;;;;;3.99;100.00;99759.69;682795;1258;139726;-78
2023/01/20 01:09:40;;;;;;;91.60;33.00;;;;;;;4.13;100.00;99767.70;682904;1257;139286;-76
2023/01/20 01:24:43;;;;;;;98.30;38.80;;;;;;;4.01;100.00;99789.30;682736;1263;138650;-77
2023/01/20 01:39:47;;;;;;;233.10;88.60;;;;;;;3.92;100.00;99813.22;682743;1262;138831;-77
2023/01/20 01:54:51;;;;;;;90.40;34.80;;;;;;;3.83;100.00;99819.03;682713;1257;139740;-77
2023/01/20 02:09:56;;;;;;;78.30;30.50;;;;;;;3.90;100.00;99817.90;682915;1262;139833;-77
2023/01/20 02:25:28;;;;;;;77.80;29.10;;;;;;;3.99;100.00;99822.63;682833;1258;139952;-76
2023/01/20 02:40:40;;;;;;;79.90;30.40;;;;;;;4.08;100.00;99836.58;682845;1260;138906;-77
2023/01/20 02:55:47;;;;;;;87.80;32.30;;;;;;;4.00;100.00;99850.61;682774;1263;138876;-77
2023/01/20 03:10:53;;;;;;;85.70;36.00;;;;;;;3.82;100.00;99863.05;682738;1259;139401;-76
2023/01/20 03:25:57;;;;;;;69.10;30.30;;;;;;;3.65;100.00;99873.00;682834;1262;138872;-76
2023/01/20 03:41:10;;;;;;;72.40;29.50;;;;;;;3.42;100.00;99886.22;682810;1262;139309;-77
2023/01/20 03:56:20;;;;;;;55.50;25.00;;;;;;;3.34;100.00;99903.02;682727;1263;138745;-76
2023/01/20 04:11:23;;;;;;;51.70;23.90;;;;;;;3.50;100.00;99889.50;682752;1263;139913;-77
2023/01/20 04:26:26;;;;;;;51.00;22.90;;;;;;;3.57;100.00;99897.58;682860;1263;138939;-76
2023/01/20 04:41:30;;;;;;;75.10;28.90;;;;;;;3.66;100.00;99910.29;682704;1262;139275;-77
2023/01/20 04:56:33;;;;;;;72.60;28.30;;;;;;;3.54;100.00;99933.15;682980;1258;139000;-77
2023/01/20 05:11:36;;;;;;;70.60;29.20;;;;;;;3.36;100.00;99958.53;682735;1263;139757;-78
2023/01/20 05:26:39;;;;;;;64.20;26.80;;;;;;;3.21;100.00;99990.56;682936;1259;139292;-78
2023/01/20 05:41:45;;;;;;;60.20;24.80;;;;;;;3.08;100.00;100011.57;682828;1260;140115;-78
2023/01/20 05:56:48;;;;;;;84.60;35.60;;;;;;;3.04;100.00;100030.11;682892;1259;138972;-78
2023/01/20 06:11:53;;;;;;;73.90;29.90;;;;;;;2.96;100.00;100056.34;682807;1258;139902;-78
2023/01/20 06:26:56;;;;;;;68.40;27.90;;;;;;;2.98;100.00;100098.56;682918;1261;138958;-77
2023/01/20 06:41:59;;;;;;;70.10;27.80;;;;;;;2.91;100.00;100131.45;682633;1261;139098;-78
2023/01/20 06:57:03;;;;;;;73.40;35.90;;;;;;;2.97;100.00;100166.35;682919;1259;139714;-78
2023/01/20 07:12:06;;;;;;;69.20;28.60;;;;;;;3.02;100.00;100186.25;682771;1258;139793;-75
2023/01/20 07:27:09;;;;;;;82.50;32.40;;;;;;;3.04;100.00;100218.50;682782;1257;141088;-76
2023/01/20 07:42:12;;;;;;;88.20;32.90;;;;;;;2.86;100.00;100238.00;682932;1262;139287;-77
2023/01/20 07:57:16;;;;;;;99.30;39.90;;;;;;;2.66;100.00;100247.38;682656;1263;139807;-78
2023/01/20 08:12:19;;;;;;;125.80;44.10;;;;;;;2.64;100.00;100277.70;682835;1259;140149;-76
2023/01/20 08:27:22;;;;;;;124.40;60.60;;;;;;;2.75;100.00;100296.78;682703;1262;139178;-78
2023/01/20 08:42:26;;;;;;;80.80;35.00;;;;;;;2.79;100.00;100306.08;682568;1260;139714;-77
2023/01/20 08:57:29;;;;;;;84.00;32.80;;;;;;;3.01;100.00;100320.64;682904;1260;139423;-77
2023/01/20 09:12:32;;;;;;;116.30;51.60;;;;;;;3.08;100.00;100332.67;682673;1260;139675;-78
2023/01/20 09:27:36;;;;;;;111.70;40.30;;;;;;;3.06;100.00;100339.70;682619;1262;155025;-78
2023/01/20 09:58:31;;;;;;;160.30;73.80;;;;;;;3.15;100.00;100341.61;682907;1263;139288;-79
2023/01/20 10:13:57;;;;;;;105.10;38.90;;;;;;;3.20;100.00;100350.84;682550;1261;139562;-78
2023/01/20 10:29:05;;;;;;;118.50;47.60;;;;;;;3.19;99.81;100350.85;682802;1262;139439;-78
2023/01/20 10:44:12;;;;;;;91.20;34.90;;;;;;;3.24;99.76;100365.31;682899;1262;139376;-78
2023/01/20 10:59:32;;;;;;;102.90;38.70;;;;;;;3.11;99.72;100391.79;682610;1263;139314;-77
2023/01/20 11:14:48;;;;;;;80.60;30.50;;;;;;;3.39;99.91;100405.27;682805;1262;138964;-77
2023/01/20 11:29:58;;;;;;;136.50;50.10;;;;;;;3.50;99.01;100414.83;682715;1263;139965;-77
2023/01/20 11:45:03;;;;;;;70.40;26.70;;;;;;;3.54;97.97;100427.95;682640;1260;138950;-78
2023/01/20 12:00:23;;;;;;;96.40;37.10;;;;;;;3.72;97.49;100432.12;682562;1260;139297;-79
2023/01/20 12:15:36;;;;;;;88.70;29.80;;;;;;;3.88;97.61;100436.73;682517;1263;138792;-79
2023/01/20 12:30:59;;;;;;;131.40;48.60;;;;;;;3.96;97.14;100444.94;682681;1262;139007;-79
2023/01/20 12:46:23;;;;;;;79.20;28.60;;;;;;;3.89;96.14;100465.91;682538;1263;139123;-78
2023/01/20 13:01:41;;;;;;;95.70;35.60;;;;;;;3.92;96.28;100484.44;682434;1263;139249;-78
2023/01/20 13:17:06;;;;;;;142.20;54.40;;;;;;;3.92;95.95;100503.85;682673;1263;139801;-78
2023/01/20 13:32:40;;;;;;;153.20;59.50;;;;;;;3.92;95.86;100524.60;682451;1262;139808;-79
2023/01/20 13:48:01;;;;;;;141.40;51.50;;;;;;;3.87;95.71;100524.52;682625;1263;139722;-79
2023/01/20 14:03:29;;;;;;;154.70;65.70;;;;;;;3.95;95.99;100524.44;682744;1263;139466;-78
2023/01/20 14:18:32;;;;;;;217.50;73.30;;;;;;;3.94;95.90;100535.08;682741;1262;139427;-78
2023/01/20 14:33:43;;;;;;;275.60;102.50;;;;;;;3.94;95.94;100557.02;682730;1263;138864;-77
2023/01/20 14:48:48;;;;;;;198.80;80.00;;;;;;;3.85;95.80;100564.96;682610;1263;139319;-78
2023/01/20 15:03:58;;;;;;;191.90;63.50;;;;;;;3.71;95.80;100591.48;682686;1262;139980;-78
2023/01/20 15:19:14;;;;;;;123.40;49.30;;;;;;;3.74;95.87;100601.37;682601;1263;138840;-78
2023/01/20 15:34:17;;;;;;;206.40;75.50;;;;;;;3.70;96.05;100632.04;682843;1262;138832;-78
2023/01/20 15:49:21;;;;;;;176.10;67.10;;;;;;;3.42;95.59;100661.86;682582;1259;138818;-77
2023/01/20 16:04:24;;;;;;;179.70;60.00;;;;;;;3.42;95.46;100681.07;682913;1262;139029;-77
2023/01/20 16:19:27;;;;;;;160.30;59.40;;;;;;;3.44;95.51;100702.42;682566;1262;139597;-77
2023/01/20 16:34:32;;;;;;;134.00;57.20;;;;;;;3.48;95.62;100724.16;682777;1258;139037;-77
2023/01/20 16:49:39;;;;;;;99.40;39.20;;;;;;;3.57;95.86;100751.90;682703;1264;138795;-78
2023/01/20 17:04:46;;;;;;;177.40;68.10;;;;;;;3.66;95.75;100773.90;683078;1257;138680;-77
2023/01/20 17:19:50;;;;;;;126.30;48.00;;;;;;;3.63;95.82;100794.46;682909;1262;138764;-77
2023/01/20 17:34:53;;;;;;;123.40;46.50;;;;;;;3.64;95.88;100809.46;683015;1257;139140;-78
2023/01/20 17:49:56;;;;;;;103.90;39.40;;;;;;;3.62;95.85;100817.52;682695;1261;139546;-77
2023/01/20 18:05:01;;;;;;;274.40;101.10;;;;;;;3.57;96.16;100817.96;683042;1262;138926;-79
2023/01/20 18:20:07;;;;;;;135.50;59.30;;;;;;;3.60;96.60;100825.96;682634;1257;139138;-78
2023/01/20 18:35:10;;;;;;;109.20;43.10;;;;;;;3.63;96.58;100827.71;682932;1258;138973;-77
2023/01/20 18:50:15;;;;;;;74.70;30.20;;;;;;;3.59;96.78;100843.11;682920;1259;139306;-77
2023/01/20 19:05:20;;;;;;;86.00;33.40;;;;;;;3.55;96.87;100853.34;682866;1263;138981;-78
2023/01/20 19:20:25;;;;;;;77.20;34.50;;;;;;;3.51;96.75;100864.45;683230;1273;138778;-79
2023/01/20 19:35:30;;;;;;;123.60;44.30;;;;;;;3.38;96.52;100881.47;683323;1257;138336;-77
2023/01/20 19:50:35;;;;;;;212.50;78.80;;;;;;;3.31;96.61;100888.05;683226;1260;139349;-76
2023/01/20 20:05:42;;;;;;;49.50;25.00;;;;;;;3.26;96.45;100891.58;682776;1259;139044;-77
2023/01/20 20:20:46;;;;;;;58.50;25.10;;;;;;;3.18;96.90;100907.52;683181;1257;139345;-77
2023/01/20 20:35:50;;;;;;;63.90;26.20;;;;;;;3.18;96.82;100914.60;683137;1258;139639;-77
2023/01/20 20:50:54;;;;;;;71.10;33.20;;;;;;;3.04;96.54;100937.36;683032;1258;138816;-78
2023/01/20 21:06:00;;;;;;;42.50;19.40;;;;;;;3.04;96.55;100936.34;683327;1260;138821;-78
2023/01/20 21:21:07;;;;;;;40.70;17.50;;;;;;;3.06;96.64;100938.16;683105;1260;139558;-79
2023/01/20 21:36:11;;;;;;;32.70;14.50;;;;;;;3.06;96.37;100939.03;682883;1260;306071;-79
2023/01/20 22:06:38;;;;;;;36.60;16.20;;;;;;;2.76;95.89;100956.27;683157;1260;138862;-79
2023/01/20 22:21:41;;;;;;;41.80;18.50;;;;;;;2.68;95.87;100956.77;683141;1260;139256;-79
2023/01/20 22:36:46;;;;;;;54.60;22.10;;;;;;;2.67;96.52;100960.11;683099;1261;139096;-79
2023/01/20 22:51:52;;;;;;;47.30;18.10;;;;;;;2.66;96.73;100964.63;683090;1262;140492;-79
2023/01/20 23:07:00;;;;;;;33.80;16.10;;;;;;;2.70;96.53;100954.44;682959;1259;138664;-78
2023/01/20 23:22:14;;;;;;;48.50;17.60;;;;;;;2.64;96.53;100951.10;683035;1260;140097;-78
2023/01/20 23:37:19;;;;;;;35.90;13.80;;;;;;;2.54;96.34;100953.07;682823;1259;139113;-79
2023/01/20 23:52:24;;;;;;;46.60;14.50;;;;;;;2.52;95.85;100941.26;683015;1262;138804;-80
